Daydream Believer — V7XJ3 — position and weather

sailwx.info

Track history (hours):
 
Tides and Currents Weather Stations Pressure Air Temp Water Temp Dewpoint Dewpoint Depression Visibility Wind Speed Wind Dir Waves Ship Positions

Daydream Believer

Last reported at 2016-Jan-19 11:07 UTC. Time now 2016-Feb-11 19:16 UTC.
Position N 29°17' W 093°41'.
Warning: this ship's position is 23 days out of date.

Length 178 m; draft 10 m.

Type: Ship. MMSI: 538004493.

Date/timePositionNaut miles runAvg speedWind from/ knotsBaromVisibWave heightAir tempDewpointWater temp
2016-Jan-19 11:07N 29°17' W 093°41'1110.7
2016-Jan-19 10:07N 29°27' W 093°40'610.4
2016-Jan-19 09:32N 29°32' W 093°44'1111.6
2016-Jan-19 08:33N 29°42' W 093°51'9 9.3
2016-Jan-19 07:32N 29°49' W 093°58'7 7.5
2016-Jan-19 06:33N 29°55' W 093°53'4 3.6
2016-Jan-19 05:33N 29°59' W 093°53'0 0.0
2016-Jan-19 04:33N 29°59' W 093°53'0 0.0
2016-Jan-19 03:33N 29°59' W 093°53'0 0.0
2016-Jan-19 02:33N 29°59' W 093°53'0 0.0
2016-Jan-19 01:33N 29°59' W 093°53'0 0.0
2016-Jan-19 00:33N 29°59' W 093°53'0 0.0
2016-Jan-18 23:33N 29°59' W 093°53'0 0.0
2016-Jan-18 22:33N 29°59' W 093°53'0 0.0
2016-Jan-18 21:30N 29°59' W 093°53'0 0.0
2016-Jan-18 20:30N 29°59' W 093°53'0 0.0
2016-Jan-18 19:33N 29°59' W 093°53'0 0.0
2016-Jan-18 18:33N 29°59' W 093°53'0 0.0
2016-Jan-18 17:33N 29°59' W 093°53'0 0.0
2016-Jan-18 16:33N 29°59' W 093°53'0 0.0
2016-Jan-18 15:30N 29°59' W 093°53'0 0.0
2016-Jan-18 14:33N 29°59' W 093°53'0 0.0
2016-Jan-18 13:33N 29°59' W 093°53'0 0.0
2016-Jan-18 12:33N 29°59' W 093°53'0 0.0
2016-Jan-18 11:33N 29°59' W 093°53'0 0.0
2016-Jan-18 10:30N 29°59' W 093°53'0 0.0
2016-Jan-18 09:33N 29°59' W 093°53'0 0.0
2016-Jan-18 08:33N 29°59' W 093°53'0 0.0
2016-Jan-18 07:33N 29°59' W 093°53'0 0.0
2016-Jan-18 06:33N 29°59' W 093°53'0 0.0
2016-Jan-18 05:24N 29°59' W 093°53'0 0.0
2016-Jan-18 04:33N 29°59' W 093°53'0 0.0
2016-Jan-18 03:33N 29°59' W 093°53'0 0.0
2016-Jan-18 02:30N 29°59' W 093°53'0 0.0
2016-Jan-18 01:33N 29°59' W 093°53'0 0.0
2016-Jan-18 00:33N 29°59' W 093°53'0 0.0
2016-Jan-17 23:33N 29°59' W 093°53'0 0.0
2016-Jan-17 22:33N 29°59' W 093°53'0 0.0
2016-Jan-17 21:33N 29°59' W 093°53'0 0.0
2016-Jan-17 20:33N 29°59' W 093°53'0 0.0
2016-Jan-17 19:30N 29°59' W 093°53'0 0.0
2016-Jan-17 18:33N 29°59' W 093°53'0 0.0
2016-Jan-17 17:33N 29°59' W 093°53'2 2.0
2016-Jan-17 16:30N 29°60' W 093°56'0 0.1
2016-Jan-17 15:31N 29°59' W 093°56'0 0.0
2016-Jan-17 14:31N 29°59' W 093°56'0 0.0
2016-Jan-17 13:28N 29°59' W 093°56'0 0.0
2016-Jan-17 12:31N 29°59' W 093°56'0 0.0
2016-Jan-17 11:28N 29°59' W 093°56'0 0.0
2016-Jan-17 10:31N 29°59' W 093°56'0 0.0
2016-Jan-17 09:31N 29°59' W 093°56'0 0.0
2016-Jan-17 08:28N 29°59' W 093°56'0 0.0
2016-Jan-17 07:28N 29°59' W 093°56'0 0.0
2016-Jan-17 06:31N 29°59' W 093°56'0 0.0
2016-Jan-17 05:23N 29°60' W 093°56'4 4.8
2016-Jan-17 04:33N 29°58' W 093°51'8 8.3
2016-Jan-17 03:33N 29°51' W 093°57'8 7.7
2016-Jan-17 02:32N 29°44' W 093°52'1110.1
2016-Jan-17 01:28N 29°35' W 093°47'  
Track history (hours):
 
Tides and Currents Weather Stations Pressure Air Temp Water Temp Dewpoint Dewpoint Depression Visibility Wind Speed Wind Dir Waves Ship Positions

Daydream Believer

Last reported at 2016-Jan-19 11:07 UTC. Time now 2016-Feb-11 19:16 UTC.
Position N 29°17' W 093°41'.
Warning: this ship's position is 23 days out of date.

Length 178 m; draft 10 m.

Type: Ship. MMSI: 538004493.

Date/timePositionNaut miles runAvg speedWind from/ knotsBaromVisibWave heightAir tempDewpointWater temp
2016-Jan-19 11:07N 29°17' W 093°41'1110.7
2016-Jan-19 10:07N 29°27' W 093°40'610.4
2016-Jan-19 09:32N 29°32' W 093°44'1111.6
2016-Jan-19 08:33N 29°42' W 093°51'9 9.3
2016-Jan-19 07:32N 29°49' W 093°58'7 7.5
2016-Jan-19 06:33N 29°55' W 093°53'4 3.6
2016-Jan-19 05:33N 29°59' W 093°53'0 0.0
2016-Jan-19 04:33N 29°59' W 093°53'0 0.0
2016-Jan-19 03:33N 29°59' W 093°53'0 0.0
2016-Jan-19 02:33N 29°59' W 093°53'0 0.0
2016-Jan-19 01:33N 29°59' W 093°53'0 0.0
2016-Jan-19 00:33N 29°59' W 093°53'0 0.0
2016-Jan-18 23:33N 29°59' W 093°53'0 0.0
2016-Jan-18 22:33N 29°59' W 093°53'0 0.0
2016-Jan-18 21:30N 29°59' W 093°53'0 0.0
2016-Jan-18 20:30N 29°59' W 093°53'0 0.0
2016-Jan-18 19:33N 29°59' W 093°53'0 0.0
2016-Jan-18 18:33N 29°59' W 093°53'0 0.0
2016-Jan-18 17:33N 29°59' W 093°53'0 0.0
2016-Jan-18 16:33N 29°59' W 093°53'0 0.0
2016-Jan-18 15:30N 29°59' W 093°53'0 0.0
2016-Jan-18 14:33N 29°59' W 093°53'0 0.0
2016-Jan-18 13:33N 29°59' W 093°53'0 0.0
2016-Jan-18 12:33N 29°59' W 093°53'0 0.0
2016-Jan-18 11:33N 29°59' W 093°53'0 0.0
2016-Jan-18 10:30N 29°59' W 093°53'0 0.0
2016-Jan-18 09:33N 29°59' W 093°53'0 0.0
2016-Jan-18 08:33N 29°59' W 093°53'0 0.0
2016-Jan-18 07:33N 29°59' W 093°53'0 0.0
2016-Jan-18 06:33N 29°59' W 093°53'0 0.0
2016-Jan-18 05:24N 29°59' W 093°53'0 0.0
2016-Jan-18 04:33N 29°59' W 093°53'0 0.0
2016-Jan-18 03:33N 29°59' W 093°53'0 0.0
2016-Jan-18 02:30N 29°59' W 093°53'0 0.0
2016-Jan-18 01:33N 29°59' W 093°53'0 0.0
2016-Jan-18 00:33N 29°59' W 093°53'0 0.0
2016-Jan-17 23:33N 29°59' W 093°53'0 0.0
2016-Jan-17 22:33N 29°59' W 093°53'0 0.0
2016-Jan-17 21:33N 29°59' W 093°53'0 0.0
2016-Jan-17 20:33N 29°59' W 093°53'0 0.0
2016-Jan-17 19:30N 29°59' W 093°53'0 0.0
2016-Jan-17 18:33N 29°59' W 093°53'0 0.0
2016-Jan-17 17:33N 29°59' W 093°53'2 2.0
2016-Jan-17 16:30N 29°60' W 093°56'0 0.1
2016-Jan-17 15:31N 29°59' W 093°56'0 0.0
2016-Jan-17 14:31N 29°59' W 093°56'0 0.0
2016-Jan-17 13:28N 29°59' W 093°56'0 0.0
2016-Jan-17 12:31N 29°59' W 093°56'0 0.0
2016-Jan-17 11:28N 29°59' W 093°56'0 0.0
2016-Jan-17 10:31N 29°59' W 093°56'0 0.0
2016-Jan-17 09:31N 29°59' W 093°56'0 0.0
2016-Jan-17 08:28N 29°59' W 093°56'0 0.0
2016-Jan-17 07:28N 29°59' W 093°56'0 0.0
2016-Jan-17 06:31N 29°59' W 093°56'0 0.0
2016-Jan-17 05:23N 29°60' W 093°56'4 4.8
2016-Jan-17 04:33N 29°58' W 093°51'8 8.3
2016-Jan-17 03:33N 29°51' W 093°57'8 7.7
2016-Jan-17 02:32N 29°44' W 093°52'1110.1
2016-Jan-17 01:28N 29°35' W 093°47'  

Dump ship's entire track history